sensor_id;sensor_type;location;lat;lon;timestamp;pressure;altitude;pressure_sealevel;temperature;humidity
76374;BME280;65197;50.164;8.012;2024-01-25T00:01:41;74349.63;;;-144.13;100.00
76374;BME280;65197;50.164;8.012;2024-01-25T00:04:07;74334.00;;;-144.13;100.00
76374;BME280;65197;50.164;8.012;2024-01-25T00:06:33;74345.72;;;-144.13;100.00
76374;BME280;65197;50.164;8.012;2024-01-25T00:08:58;74345.72;;;-144.13;100.00
76374;BME280;65197;50.164;8.012;2024-01-25T00:11:24;74357.44;;;-144.13;100.00
76374;BME280;65197;50.164;8.012;2024-01-25T00:13:50;74357.44;;;-144.13;100.00
76374;BME280;65197;50.164;8.012;2024-01-25T00:16:15;74357.44;;;-144.13;100.00
76374;BME280;65197;50.164;8.012;2024-01-25T00:18:41;74341.81;;;-144.13;100.00
76374;BME280;65197;50.164;8.012;2024-01-25T00:21:06;74341.81;;;-144.13;100.00
76374;BME280;65197;50.164;8.012;2024-01-25T00:23:32;74363.28;;;-144.13;100.00
76374;BME280;65197;50.164;8.012;2024-01-25T00:25:58;74361.31;;;-144.13;100.00
76374;BME280;65197;50.164;8.012;2024-01-25T00:28:25;74361.31;;;-144.13;100.00
76374;BME280;65197;50.164;8.012;2024-01-25T00:30:51;74363.28;;;-144.13;100.00
76374;BME280;65197;50.164;8.012;2024-01-25T00:33:17;74363.28;;;-144.13;100.00
76374;BME280;65197;50.164;8.012;2024-01-25T00:35:43;74357.44;;;-144.13;100.00
76374;BME280;65197;50.164;8.012;2024-01-25T00:38:09;74361.31;;;-144.13;100.00
76374;BME280;65197;50.164;8.012;2024-01-25T00:40:35;74355.47;;;-144.13;100.00
76374;BME280;65197;50.164;8.012;2024-01-25T00:43:00;74353.53;;;-144.13;100.00
76374;BME280;65197;50.164;8.012;2024-01-25T00:45:26;74349.63;;;-144.13;100.00
76374;BME280;65197;50.164;8.012;2024-01-25T00:47:52;74345.72;;;-144.13;100.00
76374;BME280;65197;50.164;8.012;2024-01-25T00:50:19;74337.91;;;-144.13;100.00
76374;BME280;65197;50.164;8.012;2024-01-25T00:52:47;74341.81;;;-144.13;100.00
76374;BME280;65197;50.164;8.012;2024-01-25T00:55:14;74337.91;;;-144.13;100.00
76374;BME280;65197;50.164;8.012;2024-01-25T00:57:40;74345.72;;;-144.13;100.00
76374;BME280;65197;50.164;8.012;2024-01-25T01:00:06;74345.72;;;-144.13;100.00
76374;BME280;65197;50.164;8.012;2024-01-25T01:02:36;74347.66;;;-144.13;100.00
76374;BME280;65197;50.164;8.012;2024-01-25T01:05:05;74365.22;;;-144.13;100.00
76374;BME280;65197;50.164;8.012;2024-01-25T01:07:31;74353.53;;;-144.13;100.00
76374;BME280;65197;50.164;8.012;2024-01-25T01:09:56;74357.44;;;-144.13;100.00
76374;BME280;65197;50.164;8.012;2024-01-25T01:12:22;74361.31;;;-144.13;100.00
76374;BME280;65197;50.164;8.012;2024-01-25T01:14:47;74361.31;;;-144.13;100.00
76374;BME280;65197;50.164;8.012;2024-01-25T01:17:13;74359.38;;;-144.13;100.00
76374;BME280;65197;50.164;8.012;2024-01-25T01:19:39;74359.38;;;-144.13;100.00
76374;BME280;65197;50.164;8.012;2024-01-25T01:22:05;74363.28;;;-144.13;100.00
76374;BME280;65197;50.164;8.012;2024-01-25T01:24:30;74369.13;;;-144.13;100.00
76374;BME280;65197;50.164;8.012;2024-01-25T01:26:56;74369.13;;;-144.13;100.00
76374;BME280;65197;50.164;8.012;2024-01-25T01:29:21;74363.28;;;-144.13;100.00
76374;BME280;65197;50.164;8.012;2024-01-25T01:31:47;74361.31;;;-144.13;100.00
76374;BME280;65197;50.164;8.012;2024-01-25T01:34:12;74365.22;;;-144.13;100.00
76374;BME280;65197;50.164;8.012;2024-01-25T01:36:39;74373.03;;;-144.13;100.00
76374;BME280;65197;50.164;8.012;2024-01-25T01:39:04;74375.00;;;-144.13;100.00
76374;BME280;65197;50.164;8.012;2024-01-25T01:41:31;74373.03;;;-144.13;100.00
76374;BME280;65197;50.164;8.012;2024-01-25T01:43:57;74384.75;;;-144.13;100.00
76374;BME280;65197;50.164;8.012;2024-01-25T01:46:33;74373.03;;;-144.13;100.00
76374;BME280;65197;50.164;8.012;2024-01-25T01:49:03;74363.28;;;-144.13;100.00
76374;BME280;65197;50.164;8.012;2024-01-25T01:51:30;74375.00;;;-144.13;100.00
76374;BME280;65197;50.164;8.012;2024-01-25T01:53:57;74369.13;;;-144.13;100.00
76374;BME280;65197;50.164;8.012;2024-01-25T01:56:27;74365.22;;;-144.13;100.00
76374;BME280;65197;50.164;8.012;2024-01-25T01:58:57;74355.47;;;-144.13;100.00
76374;BME280;65197;50.164;8.012;2024-01-25T02:01:23;74353.53;;;-144.13;100.00
76374;BME280;65197;50.164;8.012;2024-01-25T02:03:49;74369.13;;;-144.13;100.00
76374;BME280;65197;50.164;8.012;2024-01-25T02:06:14;74373.03;;;-144.13;100.00
76374;BME280;65197;50.164;8.012;2024-01-25T02:08:40;74367.19;;;-144.13;100.00
76374;BME280;65197;50.164;8.012;2024-01-25T02:11:06;74369.13;;;-144.13;100.00
76374;BME280;65197;50.164;8.012;2024-01-25T02:13:33;74367.19;;;-144.13;100.00
76374;BME280;65197;50.164;8.012;2024-01-25T02:15:58;74349.63;;;-144.13;100.00
76374;BME280;65197;50.164;8.012;2024-01-25T02:18:24;74353.53;;;-144.13;100.00
76374;BME280;65197;50.164;8.012;2024-01-25T02:20:50;74363.28;;;-144.13;100.00
76374;BME280;65197;50.164;8.012;2024-01-25T02:23:15;74365.22;;;-144.13;100.00
76374;BME280;65197;50.164;8.012;2024-01-25T02:25:41;74369.13;;;-144.13;100.00
76374;BME280;65197;50.164;8.012;2024-01-25T02:28:06;74363.28;;;-144.13;100.00
76374;BME280;65197;50.164;8.012;2024-01-25T02:30:32;74373.03;;;-144.13;100.00
76374;BME280;65197;50.164;8.012;2024-01-25T02:32:57;74365.22;;;-144.13;100.00
76374;BME280;65197;50.164;8.012;2024-01-25T02:35:23;74357.44;;;-144.13;100.00
76374;BME280;65197;50.164;8.012;2024-01-25T02:37:49;74345.72;;;-144.13;100.00
76374;BME280;65197;50.164;8.012;2024-01-25T02:40:16;74351.56;;;-144.13;100.00
76374;BME280;65197;50.164;8.012;2024-01-25T02:42:41;74353.53;;;-144.13;100.00
76374;BME280;65197;50.164;8.012;2024-01-25T02:45:07;74349.63;;;-144.13;100.00
76374;BME280;65197;50.164;8.012;2024-01-25T02:47:33;74349.63;;;-144.13;100.00
76374;BME280;65197;50.164;8.012;2024-01-25T02:49:58;74345.72;;;-144.13;100.00
76374;BME280;65197;50.164;8.012;2024-01-25T02:52:24;74341.81;;;-144.13;100.00
76374;BME280;65197;50.164;8.012;2024-01-25T02:54:49;74341.81;;;-144.13;100.00
76374;BME280;65197;50.164;8.012;2024-01-25T02:57:15;74330.09;;;-144.13;100.00
76374;BME280;65197;50.164;8.012;2024-01-25T02:59:41;74330.09;;;-144.13;100.00
76374;BME280;65197;50.164;8.012;2024-01-25T03:02:07;74334.00;;;-144.13;100.00
76374;BME280;65197;50.164;8.012;2024-01-25T03:04:32;74318.41;;;-144.13;100.00
76374;BME280;65197;50.164;8.012;2024-01-25T03:06:58;74316.44;;;-144.13;100.00
76374;BME280;65197;50.164;8.012;2024-01-25T03:09:23;74320.34;;;-144.13;100.00
76374;BME280;65197;50.164;8.012;2024-01-25T03:11:49;74334.00;;;-144.13;100.00
76374;BME280;65197;50.164;8.012;2024-01-25T03:14:15;74337.91;;;-144.13;100.00
76374;BME280;65197;50.164;8.012;2024-01-25T03:16:41;74328.16;;;-144.13;100.00
76374;BME280;65197;50.164;8.012;2024-01-25T03:19:06;74328.16;;;-144.13;100.00
76374;BME280;65197;50.164;8.012;2024-01-25T03:21:32;74328.16;;;-144.13;100.00
76374;BME280;65197;50.164;8.012;2024-01-25T03:23:57;74334.00;;;-144.13;100.00
76374;BME280;65197;50.164;8.012;2024-01-25T03:26:23;74337.91;;;-144.13;100.00
76374;BME280;65197;50.164;8.012;2024-01-25T03:28:49;74334.00;;;-144.13;100.00
76374;BME280;65197;50.164;8.012;2024-01-25T03:31:14;74345.72;;;-144.13;100.00
76374;BME280;65197;50.164;8.012;2024-01-25T03:33:40;74361.31;;;-144.13;100.00
76374;BME280;65197;50.164;8.012;2024-01-25T03:36:06;74380.84;;;-144.13;100.00
76374;BME280;65197;50.164;8.012;2024-01-25T03:38:31;74392.53;;;-144.13;100.00
76374;BME280;65197;50.164;8.012;2024-01-25T03:40:57;74388.66;;;-144.13;100.00
76374;BME280;65197;50.164;8.012;2024-01-25T03:43:24;74388.66;;;-144.13;100.00
76374;BME280;65197;50.164;8.012;2024-01-25T03:45:50;74388.66;;;-144.13;100.00
76374;BME280;65197;50.164;8.012;2024-01-25T03:48:16;74392.53;;;-144.13;100.00
76374;BME280;65197;50.164;8.012;2024-01-25T03:50:42;74400.34;;;-144.13;100.00
76374;BME280;65197;50.164;8.012;2024-01-25T03:53:07;74398.41;;;-144.13;100.00
76374;BME280;65197;50.164;8.012;2024-01-25T03:55:33;74394.50;;;-144.13;100.00
76374;BME280;65197;50.164;8.012;2024-01-25T03:57:58;74408.16;;;-144.13;100.00
76374;BME280;65197;50.164;8.012;2024-01-25T04:00:24;74419.88;;;-144.13;100.00
76374;BME280;65197;50.164;8.012;2024-01-25T04:02:50;74431.56;;;-144.13;100.00
76374;BME280;65197;50.164;8.012;2024-01-25T04:05:16;74427.66;;;-144.13;100.00
76374;BME280;65197;50.164;8.012;2024-01-25T04:07:41;74427.66;;;-144.13;100.00
76374;BME280;65197;50.164;8.012;2024-01-25T04:10:07;74435.47;;;-144.13;100.00
76374;BME280;65197;50.164;8.012;2024-01-25T04:12:33;74435.47;;;-144.13;100.00
76374;BME280;65197;50.164;8.012;2024-01-25T04:14:59;74443.28;;;-144.13;100.00
76374;BME280;65197;50.164;8.012;2024-01-25T04:17:24;74445.22;;;-144.13;100.00
76374;BME280;65197;50.164;8.012;2024-01-25T04:19:50;74451.09;;;-144.13;100.00
76374;BME280;65197;50.164;8.012;2024-01-25T04:22:16;74447.19;;;-144.13;100.00
76374;BME280;65197;50.164;8.012;2024-01-25T04:24:41;74447.19;;;-144.13;100.00
76374;BME280;65197;50.164;8.012;2024-01-25T04:27:08;74443.28;;;-144.13;100.00
76374;BME280;65197;50.164;8.012;2024-01-25T04:29:34;74435.47;;;-144.13;100.00
76374;BME280;65197;50.164;8.012;2024-01-25T04:31:59;74431.56;;;-144.13;100.00
76374;BME280;65197;50.164;8.012;2024-01-25T04:34:25;74435.47;;;-144.13;100.00
76374;BME280;65197;50.164;8.012;2024-01-25T04:36:50;74421.81;;;-144.13;100.00
76374;BME280;65197;50.164;8.012;2024-01-25T04:39:16;74419.88;;;-144.13;100.00
76374;BME280;65197;50.164;8.012;2024-01-25T04:41:42;74425.72;;;-144.13;100.00
76374;BME280;65197;50.164;8.012;2024-01-25T04:44:07;74419.88;;;-144.13;100.00
76374;BME280;65197;50.164;8.012;2024-01-25T04:46:33;74423.75;;;-144.13;100.00
76374;BME280;65197;50.164;8.012;2024-01-25T04:49:02;74427.66;;;-144.13;100.00
76374;BME280;65197;50.164;8.012;2024-01-25T04:51:28;74437.41;;;-144.13;100.00
76374;BME280;65197;50.164;8.012;2024-01-25T04:53:53;74437.41;;;-144.13;100.00
76374;BME280;65197;50.164;8.012;2024-01-25T04:56:19;74454.97;;;-144.13;100.00
76374;BME280;65197;50.164;8.012;2024-01-25T04:58:45;74451.09;;;-144.13;100.00
76374;BME280;65197;50.164;8.012;2024-01-25T05:01:11;74453.03;;;-144.13;100.00
76374;BME280;65197;50.164;8.012;2024-01-25T05:03:37;74453.03;;;-144.13;100.00
76374;BME280;65197;50.164;8.012;2024-01-25T05:06:03;74451.09;;;-144.13;100.00
76374;BME280;65197;50.164;8.012;2024-01-25T05:08:28;74449.13;;;-144.13;100.00
76374;BME280;65197;50.164;8.012;2024-01-25T05:10:54;74454.97;;;-144.13;100.00
76374;BME280;65197;50.164;8.012;2024-01-25T05:13:19;74468.63;;;-144.13;100.00
76374;BME280;65197;50.164;8.012;2024-01-25T05:15:45;74486.19;;;-144.13;100.00
76374;BME280;65197;50.164;8.012;2024-01-25T05:18:11;74478.41;;;-144.13;100.00
76374;BME280;65197;50.164;8.012;2024-01-25T05:20:36;74478.41;;;-144.13;100.00
76374;BME280;65197;50.164;8.012;2024-01-25T05:23:04;74478.41;;;-144.13;100.00
76374;BME280;65197;50.164;8.012;2024-01-25T05:25:30;74486.19;;;-144.13;100.00
76374;BME280;65197;50.164;8.012;2024-01-25T05:27:57;74478.41;;;-144.13;100.00
76374;BME280;65197;50.164;8.012;2024-01-25T05:30:23;74472.53;;;-144.13;100.00
76374;BME280;65197;50.164;8.012;2024-01-25T05:32:49;74478.41;;;-144.13;100.00
76374;BME280;65197;50.164;8.012;2024-01-25T05:35:15;74482.31;;;-144.13;100.00
76374;BME280;65197;50.164;8.012;2024-01-25T05:37:41;74482.31;;;-144.13;100.00
76374;BME280;65197;50.164;8.012;2024-01-25T05:40:07;74490.09;;;-144.13;100.00
76374;BME280;65197;50.164;8.012;2024-01-25T05:42:33;74486.19;;;-144.13;100.00
76374;BME280;65197;50.164;8.012;2024-01-25T05:44:58;74494.00;;;-144.13;100.00
76374;BME280;65197;50.164;8.012;2024-01-25T05:47:24;74494.00;;;-144.13;100.00
76374;BME280;65197;50.164;8.012;2024-01-25T05:49:51;74494.00;;;-144.13;100.00
76374;BME280;65197;50.164;8.012;2024-01-25T05:52:16;74492.06;;;-144.13;100.00
76374;BME280;65197;50.164;8.012;2024-01-25T05:54:43;74501.81;;;-144.13;100.00
76374;BME280;65197;50.164;8.012;2024-01-25T05:57:09;74511.56;;;-144.13;100.00
76374;BME280;65197;50.164;8.012;2024-01-25T05:59:35;74509.63;;;-144.13;100.00
76374;BME280;65197;50.164;8.012;2024-01-25T06:02:00;74519.38;;;-144.13;100.00
76374;BME280;65197;50.164;8.012;2024-01-25T06:04:26;74521.31;;;-144.13;100.00
76374;BME280;65197;50.164;8.012;2024-01-25T06:06:52;74529.13;;;-144.13;100.00
76374;BME280;65197;50.164;8.012;2024-01-25T06:09:17;74550.59;;;-144.13;100.00
76374;BME280;65197;50.164;8.012;2024-01-25T06:11:43;74572.06;;;-144.13;100.00
76374;BME280;65197;50.164;8.012;2024-01-25T06:14:08;74564.25;;;-144.13;100.00
76374;BME280;65197;50.164;8.012;2024-01-25T06:16:34;74568.16;;;-144.13;100.00
76374;BME280;65197;50.164;8.012;2024-01-25T06:19:01;74579.84;;;-144.13;100.00
76374;BME280;65197;50.164;8.012;2024-01-25T06:21:27;74589.63;;;-144.13;100.00
76374;BME280;65197;50.164;8.012;2024-01-25T06:23:53;74595.47;;;-144.13;100.00
76374;BME280;65197;50.164;8.012;2024-01-25T06:26:18;74603.28;;;-144.13;100.00
76374;BME280;65197;50.164;8.012;2024-01-25T06:28:44;74613.03;;;-144.13;100.00
76374;BME280;65197;50.164;8.012;2024-01-25T06:31:09;74607.19;;;-144.13;100.00
76374;BME280;65197;50.164;8.012;2024-01-25T06:33:35;74613.03;;;-144.13;100.00
76374;BME280;65197;50.164;8.012;2024-01-25T06:36:01;74626.69;;;-144.13;100.00
76374;BME280;65197;50.164;8.012;2024-01-25T06:38:26;74618.88;;;-144.13;100.00
76374;BME280;65197;50.164;8.012;2024-01-25T06:40:52;74620.84;;;-144.13;100.00
76374;BME280;65197;50.164;8.012;2024-01-25T06:43:17;74607.19;;;-144.13;100.00
76374;BME280;65197;50.164;8.012;2024-01-25T06:45:43;74603.28;;;-144.13;100.00
76374;BME280;65197;50.164;8.012;2024-01-25T06:48:08;74599.38;;;-144.13;100.00
76374;BME280;65197;50.164;8.012;2024-01-25T06:50:34;74599.38;;;-144.13;100.00
76374;BME280;65197;50.164;8.012;2024-01-25T06:53:00;74599.38;;;-144.13;100.00
76374;BME280;65197;50.164;8.012;2024-01-25T06:55:26;74591.56;;;-144.13;100.00
76374;BME280;65197;50.164;8.012;2024-01-25T06:57:51;74599.38;;;-144.13;100.00
76374;BME280;65197;50.164;8.012;2024-01-25T07:00:18;74618.88;;;-144.13;100.00
76374;BME280;65197;50.164;8.012;2024-01-25T07:02:46;74614.97;;;-144.13;100.00
76374;BME280;65197;50.164;8.012;2024-01-25T07:05:12;74614.97;;;-144.13;100.00
76374;BME280;65197;50.164;8.012;2024-01-25T07:07:38;74614.97;;;-144.13;100.00
76374;BME280;65197;50.164;8.012;2024-01-25T07:10:07;74620.84;;;-144.13;100.00
76374;BME280;65197;50.164;8.012;2024-01-25T07:12:32;74638.41;;;-144.13;100.00
76374;BME280;65197;50.164;8.012;2024-01-25T07:14:58;74642.31;;;-144.13;100.00
76374;BME280;65197;50.164;8.012;2024-01-25T07:17:24;74642.31;;;-144.13;100.00
76374;BME280;65197;50.164;8.012;2024-01-25T07:19:49;74659.88;;;-144.13;100.00
76374;BME280;65197;50.164;8.012;2024-01-25T07:22:15;74661.81;;;-144.13;100.00
76374;BME280;65197;50.164;8.012;2024-01-25T07:24:42;74661.81;;;-144.13;100.00
76374;BME280;65197;50.164;8.012;2024-01-25T07:27:08;74665.72;;;-144.13;100.00
76374;BME280;65197;50.164;8.012;2024-01-25T07:29:35;74642.31;;;-144.13;100.00
76374;BME280;65197;50.164;8.012;2024-01-25T07:32:02;74630.59;;;-144.13;100.00
76374;BME280;65197;50.164;8.012;2024-01-25T07:34:27;74622.78;;;-144.13;100.00
76374;BME280;65197;50.164;8.012;2024-01-25T07:36:53;74613.03;;;-144.13;100.00
76374;BME280;65197;50.164;8.012;2024-01-25T07:39:18;74605.22;;;-144.13;100.00
76374;BME280;65197;50.164;8.012;2024-01-25T07:41:44;74589.63;;;-144.13;100.00
76374;BME280;65197;50.164;8.012;2024-01-25T07:44:09;74587.66;;;-144.13;100.00
76374;BME280;65197;50.164;8.012;2024-01-25T07:46:35;74587.66;;;-144.13;100.00
76374;BME280;65197;50.164;8.012;2024-01-25T07:49:00;74595.47;;;-144.13;100.00
76374;BME280;65197;50.164;8.012;2024-01-25T07:51:26;74595.47;;;-144.13;100.00
76374;BME280;65197;50.164;8.012;2024-01-25T07:53:54;74597.41;;;-144.13;100.00
76374;BME280;65197;50.164;8.012;2024-01-25T07:56:20;74591.56;;;-144.13;100.00
76374;BME280;65197;50.164;8.012;2024-01-25T07:58:48;74591.56;;;-144.13;100.00
76374;BME280;65197;50.164;8.012;2024-01-25T08:01:17;74595.47;;;-144.13;100.00
76374;BME280;65197;50.164;8.012;2024-01-25T08:03:43;74593.53;;;-144.13;100.00
76374;BME280;65197;50.164;8.012;2024-01-25T08:06:09;74583.75;;;-144.13;100.00
76374;BME280;65197;50.164;8.012;2024-01-25T08:08:34;74579.84;;;-144.13;100.00
76374;BME280;65197;50.164;8.012;2024-01-25T08:11:00;74554.50;;;-144.13;100.00
76374;BME280;65197;50.164;8.012;2024-01-25T08:13:25;74544.75;;;-144.13;100.00
76374;BME280;65197;50.164;8.012;2024-01-25T08:15:53;74538.88;;;-144.13;100.00
76374;BME280;65197;50.164;8.012;2024-01-25T08:18:19;74531.06;;;-144.13;100.00
76374;BME280;65197;50.164;8.012;2024-01-25T08:20:45;74529.13;;;-144.13;100.00
76374;BME280;65197;50.164;8.012;2024-01-25T08:23:11;74521.31;;;-144.13;100.00
76374;BME280;65197;50.164;8.012;2024-01-25T08:25:36;74521.31;;;-144.13;100.00
76374;BME280;65197;50.164;8.012;2024-01-25T08:28:02;74517.41;;;-144.13;100.00
76374;BME280;65197;50.164;8.012;2024-01-25T08:30:28;74497.91;;;-144.13;100.00
76374;BME280;65197;50.164;8.012;2024-01-25T08:32:53;74492.06;;;-144.13;100.00
76374;BME280;65197;50.164;8.012;2024-01-25T08:35:19;74494.00;;;-144.13;100.00
76374;BME280;65197;50.164;8.012;2024-01-25T08:37:44;74482.31;;;-144.13;100.00
76374;BME280;65197;50.164;8.012;2024-01-25T08:40:10;74482.31;;;-144.13;100.00
76374;BME280;65197;50.164;8.012;2024-01-25T08:42:36;74488.16;;;-144.13;100.00
76374;BME280;65197;50.164;8.012;2024-01-25T08:45:02;74466.69;;;-144.13;100.00
76374;BME280;65197;50.164;8.012;2024-01-25T08:47:30;74460.84;;;-144.13;100.00
76374;BME280;65197;50.164;8.012;2024-01-25T08:49:57;74439.38;;;-144.13;100.00
76374;BME280;65197;50.164;8.012;2024-01-25T08:52:22;74443.28;;;-144.13;100.00
76374;BME280;65197;50.164;8.012;2024-01-25T08:54:48;74437.41;;;-144.13;100.00
76374;BME280;65197;50.164;8.012;2024-01-25T08:57:14;74421.81;;;-144.13;100.00
76374;BME280;65197;50.164;8.012;2024-01-25T08:59:40;74375.00;;;-144.13;100.00
76374;BME280;65197;50.164;8.012;2024-01-25T09:02:06;74298.88;;;-144.13;100.00
76374;BME280;65197;50.164;8.012;2024-01-25T09:04:32;74158.41;;;-144.13;100.00
76374;BME280;65197;50.164;8.012;2024-01-25T09:06:58;74099.88;;;-144.13;100.00
76374;BME280;65197;50.164;8.012;2024-01-25T09:09:24;74017.94;;;-144.13;100.00
76374;BME280;65197;50.164;8.012;2024-01-25T09:11:49;73961.38;;;-144.13;100.00
76374;BME280;65197;50.164;8.012;2024-01-25T09:14:15;73986.72;;;-144.13;100.00
76374;BME280;65197;50.164;8.012;2024-01-25T09:16:42;73969.16;;;-144.13;100.00
76374;BME280;65197;50.164;8.012;2024-01-25T09:19:08;74045.25;;;-144.13;100.00
76374;BME280;65197;50.164;8.012;2024-01-25T09:21:33;74045.25;;;-144.13;100.00
76374;BME280;65197;50.164;8.012;2024-01-25T09:23:59;74080.38;;;-144.13;100.00
76374;BME280;65197;50.164;8.012;2024-01-25T09:26:25;74103.78;;;-144.13;100.00
76374;BME280;65197;50.164;8.012;2024-01-25T09:28:50;74115.50;;;-144.13;100.00
76374;BME280;65197;50.164;8.012;2024-01-25T09:31:16;74142.81;;;-144.13;100.00
76374;BME280;65197;50.164;8.012;2024-01-25T09:33:42;74172.06;;;-144.13;100.00
76374;BME280;65197;50.164;8.012;2024-01-25T09:36:07;74150.59;;;-144.13;100.00
76374;BME280;65197;50.164;8.012;2024-01-25T09:38:33;74201.34;;;-144.13;100.00
76374;BME280;65197;50.164;8.012;2024-01-25T09:40:59;74136.94;;;-144.13;100.00
76374;BME280;65197;50.164;8.012;2024-01-25T09:43:26;74123.28;;;-144.13;100.00
76374;BME280;65197;50.164;8.012;2024-01-25T09:45:55;74080.38;;;-144.13;100.00
76374;BME280;65197;50.164;8.012;2024-01-25T09:48:21;73963.31;;;-144.13;100.00
76374;BME280;65197;50.164;8.012;2024-01-25T09:50:47;73984.78;;;-144.13;100.00
76374;BME280;65197;50.164;8.012;2024-01-25T09:53:23;74041.34;;;-144.13;100.00
76374;BME280;65197;50.164;8.012;2024-01-25T09:56:03;74060.88;;;-144.13;100.00
76374;BME280;65197;50.164;8.012;2024-01-25T09:58:37;74029.66;;;-144.13;100.00
76374;BME280;65197;50.164;8.012;2024-01-25T10:01:10;74029.66;;;-144.13;100.00
76374;BME280;65197;50.164;8.012;2024-01-25T10:03:36;74029.66;;;-144.13;100.00
76374;BME280;65197;50.164;8.012;2024-01-25T10:06:02;73955.50;;;-144.13;100.00
76374;BME280;65197;50.164;8.012;2024-01-25T10:08:29;73928.19;;;-144.13;99.73
76374;BME280;65197;50.164;8.012;2024-01-25T10:10:55;73896.97;;;-144.13;98.77
76374;BME280;65197;50.164;8.012;2024-01-25T10:13:21;73965.28;;;-144.13;100.00
76374;BME280;65197;50.164;8.012;2024-01-25T10:15:47;74033.56;;;-144.13;100.00
76374;BME280;65197;50.164;8.012;2024-01-25T10:18:16;74008.19;;;-144.13;100.00
76374;BME280;65197;50.164;8.012;2024-01-25T10:20:42;74010.13;;;-144.13;100.00
76374;BME280;65197;50.164;8.012;2024-01-25T10:23:09;74025.75;;;-144.13;100.00
76374;BME280;65197;50.164;8.012;2024-01-25T10:25:38;74029.66;;;-144.13;100.00
76374;BME280;65197;50.164;8.012;2024-01-25T10:28:07;74142.81;;;-144.13;100.00
76374;BME280;65197;50.164;8.012;2024-01-25T10:30:34;74154.50;;;-144.13;100.00
76374;BME280;65197;50.164;8.012;2024-01-25T10:33:01;74197.44;;;-144.13;100.00
76374;BME280;65197;50.164;8.012;2024-01-25T10:35:27;74172.06;;;-144.13;100.00
76374;BME280;65197;50.164;8.012;2024-01-25T10:37:53;74195.47;;;-144.13;100.00
76374;BME280;65197;50.164;8.012;2024-01-25T10:40:19;74185.72;;;-144.13;100.00
76374;BME280;65197;50.164;8.012;2024-01-25T10:42:46;74220.84;;;-144.13;100.00
76374;BME280;65197;50.164;8.012;2024-01-25T10:45:12;74213.03;;;-144.13;100.00
76374;BME280;65197;50.164;8.012;2024-01-25T10:47:37;74216.94;;;-144.13;100.00
76374;BME280;65197;50.164;8.012;2024-01-25T10:50:07;74209.16;;;-144.13;100.00
76374;BME280;65197;50.164;8.012;2024-01-25T10:52:37;74213.03;;;-144.13;100.00
76374;BME280;65197;50.164;8.012;2024-01-25T10:55:04;74181.81;;;-144.13;100.00
76374;BME280;65197;50.164;8.012;2024-01-25T10:57:44;74215.00;;;-144.13;100.00
76374;BME280;65197;50.164;8.012;2024-01-25T11:00:20;74228.66;;;-144.13;100.00
76374;BME280;65197;50.164;8.012;2024-01-25T11:02:46;74218.91;;;-144.13;100.00
76374;BME280;65197;50.164;8.012;2024-01-25T11:05:13;74205.25;;;-144.13;100.00
76374;BME280;65197;50.164;8.012;2024-01-25T11:07:46;74189.63;;;-144.13;100.00
76374;BME280;65197;50.164;8.012;2024-01-25T11:10:17;74189.63;;;-144.13;100.00
76374;BME280;65197;50.164;8.012;2024-01-25T11:15:35;74164.25;;;-144.13;100.00
76374;BME280;65197;50.164;8.012;2024-01-25T11:18:03;74135.00;;;-144.13;100.00
76374;BME280;65197;50.164;8.012;2024-01-25T11:20:30;74111.59;;;-144.13;100.00
76374;BME280;65197;50.164;8.012;2024-01-25T11:23:02;74101.84;;;-144.13;100.00
76374;BME280;65197;50.164;8.012;2024-01-25T11:25:33;74084.28;;;-144.13;100.00
76374;BME280;65197;50.164;8.012;2024-01-25T11:28:01;74072.56;;;-144.13;100.00
76374;BME280;65197;50.164;8.012;2024-01-25T11:30:29;74092.06;;;-144.13;100.00
76374;BME280;65197;50.164;8.012;2024-01-25T11:32:55;74094.03;;;-144.13;100.00
76374;BME280;65197;50.164;8.012;2024-01-25T11:35:21;74076.47;;;-144.13;100.00
76374;BME280;65197;50.164;8.012;2024-01-25T11:37:48;74072.56;;;-144.13;100.00
76374;BME280;65197;50.164;8.012;2024-01-25T11:40:15;74072.56;;;-144.13;100.00
76374;BME280;65197;50.164;8.012;2024-01-25T11:42:47;74076.47;;;-144.13;100.00
76374;BME280;65197;50.164;8.012;2024-01-25T11:45:13;74066.72;;;-144.13;100.00
76374;BME280;65197;50.164;8.012;2024-01-25T11:47:42;74064.75;;;-144.13;99.27
76374;BME280;65197;50.164;8.012;2024-01-25T11:50:10;74045.25;;;-144.13;99.96
76374;BME280;65197;50.164;8.012;2024-01-25T11:52:37;74080.38;;;-144.13;97.43
76374;BME280;65197;50.164;8.012;2024-01-25T11:55:04;74055.00;;;-144.13;100.00
76374;BME280;65197;50.164;8.012;2024-01-25T11:57:50;74060.88;;;-144.13;99.62
76374;BME280;65197;50.164;8.012;2024-01-25T12:00:16;74092.06;;;-144.13;96.58
76374;BME280;65197;50.164;8.012;2024-01-25T12:02:43;74086.22;;;-144.13;99.26
76374;BME280;65197;50.164;8.012;2024-01-25T12:05:10;74076.47;;;-144.13;97.20
76374;BME280;65197;50.164;8.012;2024-01-25T12:07:39;74060.88;;;-144.13;96.96
76374;BME280;65197;50.164;8.012;2024-01-25T12:10:06;74056.97;;;-144.13;96.44
76374;BME280;65197;50.164;8.012;2024-01-25T12:12:34;74049.16;;;-144.13;94.47
76374;BME280;65197;50.164;8.012;2024-01-25T12:15:01;74021.84;;;-144.13;91.82
76374;BME280;65197;50.164;8.012;2024-01-25T12:17:29;73990.63;;;-144.13;93.50
76374;BME280;65197;50.164;8.012;2024-01-25T12:19:56;73971.13;;;-144.13;90.53
76374;BME280;65197;50.164;8.012;2024-01-25T12:22:23;73941.84;;;-144.13;90.34
76374;BME280;65197;50.164;8.012;2024-01-25T12:24:50;73928.19;;;-144.13;90.06
76374;BME280;65197;50.164;8.012;2024-01-25T12:27:15;73912.59;;;-144.13;87.43
76374;BME280;65197;50.164;8.012;2024-01-25T12:29:41;73863.81;;;-144.13;88.06